QFA8 KDFW-YSSY
Flight info
| Callsign | QFA8 |
|---|---|
| Flight time | N/A |
| Altitude | 32000 |
| Route | NELYN6 HOARY DCT PNG DCT NAPDA/N0502F340 DCT MZT DCT 2202N10727W 2015N10935W 1808N11201W 1708N11313W 1341N11720W 1135N12000W 0959N12159W 0708N12538W/N0500F360 0607N12656W 0330N13010W 0254N13054W 0037S13457W 0233S13709W 0524S14029W 0750S14343W 1035S14835W 1325S15357W/N0489F380 1517S15700W 1544S15745W 1743S16049W 1926S16327W 2203S16706W 2435S17024W 2651S17328W 2904S17649W/N0482F400 3133S17829E 3227S17618E 3327S17318E 3348S17200E 3437S16706E 3445S16300E 3446S16218E DCT AKALU N774 MARLN MARLN5 |
| Aircraft | B789/H-SDE1E2E3FGHIJ2J3J4J5M1RWXY/LB1D1 |
Departure
| Time | N/A |
|---|---|
| Airport | Dallas Fort Worth International Airport (KDFW) |
Arrival
| Time | 2026-05-06 00:01 |
|---|---|
| Airport | Sydney Kingsford Smith International Airport (YSSY) |
| Time | Latitude | Longitude | Altitude | Speed | Heading |
|---|---|---|---|---|---|
| 2026-05-05 22:39 | -34.70146 | 160.35429 | 40109 ft | 416 kts | 275° |
| 2026-05-05 22:40 | -34.69853 | 160.28406 | 40107 ft | 416 kts | 275° |
| 2026-05-05 22:40 | -34.69557 | 160.21423 | 40112 ft | 416 kts | 275° |
| 2026-05-05 22:41 | -34.69255 | 160.14393 | 40110 ft | 416 kts | 275° |
| 2026-05-05 22:41 | -34.68950 | 160.07370 | 40111 ft | 416 kts | 275° |
| 2026-05-05 22:42 | -34.68639 | 160.00330 | 40113 ft | 418 kts | 276° |
| 2026-05-05 22:42 | -34.68326 | 159.93314 | 40113 ft | 418 kts | 276° |
| 2026-05-05 22:43 | -34.68005 | 159.86233 | 40111 ft | 419 kts | 276° |
| 2026-05-05 22:43 | -34.67681 | 159.79150 | 40113 ft | 419 kts | 276° |
| 2026-05-05 22:44 | -34.67355 | 159.72122 | 40113 ft | 419 kts | 276° |
| 2026-05-05 22:44 | -34.67022 | 159.65037 | 40112 ft | 419 kts | 276° |
| 2026-05-05 22:45 | -34.66686 | 159.57976 | 40114 ft | 418 kts | 276° |
| 2026-05-05 22:45 | -34.66347 | 159.50940 | 40115 ft | 416 kts | 276° |
| 2026-05-05 22:46 | -34.66007 | 159.43952 | 40108 ft | 416 kts | 276° |
| 2026-05-05 22:46 | -34.65660 | 159.36925 | 40115 ft | 417 kts | 276° |
| 2026-05-05 22:47 | -34.65309 | 159.29890 | 40118 ft | 416 kts | 276° |
| 2026-05-05 22:47 | -34.64957 | 159.22915 | 40125 ft | 416 kts | 276° |
| 2026-05-05 22:48 | -34.64599 | 159.15892 | 40121 ft | 416 kts | 276° |
| 2026-05-05 22:48 | -34.64237 | 159.08885 | 40126 ft | 416 kts | 276° |
| 2026-05-05 22:49 | -34.63872 | 159.01878 | 40120 ft | 415 kts | 276° |
| 2026-05-05 22:49 | -34.63504 | 158.94910 | 40124 ft | 415 kts | 276° |
| 2026-05-05 22:50 | -34.63131 | 158.87914 | 40131 ft | 415 kts | 276° |
| 2026-05-05 22:50 | -34.62754 | 158.80912 | 40130 ft | 414 kts | 276° |
| 2026-05-05 22:51 | -34.62376 | 158.73976 | 40137 ft | 414 kts | 276° |
| 2026-05-05 22:51 | -34.61991 | 158.66995 | 40135 ft | 414 kts | 276° |
| 2026-05-05 22:52 | -34.61603 | 158.60020 | 40133 ft | 413 kts | 276° |
| 2026-05-05 22:52 | -34.61212 | 158.53056 | 40137 ft | 413 kts | 276° |
| 2026-05-05 22:53 | -34.60818 | 158.46117 | 40139 ft | 414 kts | 276° |
| 2026-05-05 22:53 | -34.60416 | 158.39109 | 40141 ft | 415 kts | 276° |
| 2026-05-05 22:54 | -34.60013 | 158.32157 | 40138 ft | 416 kts | 276° |
| 2026-05-05 22:54 | -34.59603 | 158.25143 | 40142 ft | 416 kts | 276° |
| 2026-05-05 22:55 | -34.59189 | 158.18135 | 40144 ft | 415 kts | 276° |
| 2026-05-05 22:55 | -34.58772 | 158.11144 | 40141 ft | 415 kts | 277° |
| 2026-05-05 22:56 | -34.58352 | 158.04174 | 40140 ft | 413 kts | 277° |
| 2026-05-05 22:56 | -34.57930 | 157.97236 | 40141 ft | 415 kts | 277° |
| 2026-05-05 22:57 | -34.57501 | 157.90247 | 40151 ft | 415 kts | 277° |
| 2026-05-05 22:57 | -34.57068 | 157.83250 | 40146 ft | 415 kts | 277° |
| 2026-05-05 22:58 | -34.56633 | 157.76294 | 40151 ft | 415 kts | 277° |
| 2026-05-05 22:58 | -34.56191 | 157.69298 | 40146 ft | 415 kts | 277° |
| 2026-05-05 22:59 | -34.55746 | 157.62307 | 40157 ft | 415 kts | 277° |
| 2026-05-05 22:59 | -34.55297 | 157.55326 | 40148 ft | 415 kts | 277° |
| 2026-05-05 23:00 | -34.54620 | 157.44898 | 40153 ft | 415 kts | 277° |
| 2026-05-05 23:00 | -34.54161 | 157.37914 | 40149 ft | 415 kts | 277° |
| 2026-05-05 23:01 | -34.53700 | 157.30956 | 40149 ft | 416 kts | 277° |
| 2026-05-05 23:01 | -34.53229 | 157.23908 | 40154 ft | 417 kts | 277° |
| 2026-05-05 23:02 | -34.52758 | 157.16932 | 40147 ft | 417 kts | 277° |
| 2026-05-05 23:02 | -34.52281 | 157.09919 | 40148 ft | 417 kts | 277° |
| 2026-05-05 23:03 | -34.51800 | 157.02901 | 40156 ft | 416 kts | 277° |
| 2026-05-05 23:03 | -34.51317 | 156.95913 | 40156 ft | 415 kts | 277° |
| 2026-05-05 23:04 | -34.50834 | 156.88995 | 40154 ft | 415 kts | 277° |
| 2026-05-05 23:04 | -34.50343 | 156.82015 | 40164 ft | 415 kts | 277° |
| 2026-05-05 23:05 | -34.49848 | 156.75034 | 40160 ft | 416 kts | 277° |
| 2026-05-05 23:05 | -34.49434 | 156.69228 | 40165 ft | 416 kts | 277° |
| 2026-05-05 23:06 | -34.48931 | 156.62242 | 40163 ft | 416 kts | 277° |
| 2026-05-05 23:06 | -34.48424 | 156.55250 | 40164 ft | 416 kts | 277° |
| 2026-05-05 23:07 | -34.47914 | 156.48270 | 40162 ft | 415 kts | 277° |
| 2026-05-05 23:07 | -34.47404 | 156.41355 | 40162 ft | 414 kts | 277° |
| 2026-05-05 23:08 | -34.46887 | 156.34387 | 40163 ft | 414 kts | 277° |
| 2026-05-05 23:08 | -34.46366 | 156.27427 | 40162 ft | 414 kts | 277° |
| 2026-05-05 23:09 | -34.45841 | 156.20471 | 40169 ft | 414 kts | 277° |
| 2026-05-05 23:09 | -34.45316 | 156.13558 | 40165 ft | 415 kts | 278° |
| 2026-05-05 23:10 | -34.44782 | 156.06584 | 40165 ft | 415 kts | 278° |
| 2026-05-05 23:10 | -34.44244 | 155.99607 | 40170 ft | 416 kts | 278° |
| 2026-05-05 23:11 | -34.43701 | 155.92622 | 40165 ft | 417 kts | 278° |
| 2026-05-05 23:11 | -34.43155 | 155.85651 | 40165 ft | 417 kts | 278° |
| 2026-05-05 23:12 | -34.42603 | 155.78642 | 40171 ft | 417 kts | 278° |
| 2026-05-05 23:12 | -34.42045 | 155.71622 | 40169 ft | 418 kts | 278° |
| 2026-05-05 23:13 | -34.41488 | 155.64659 | 40164 ft | 418 kts | 278° |
| 2026-05-05 23:13 | -34.40923 | 155.57649 | 40167 ft | 418 kts | 278° |
| 2026-05-05 23:14 | -34.40353 | 155.50640 | 40171 ft | 418 kts | 278° |
| 2026-05-05 23:14 | -34.39781 | 155.43638 | 40175 ft | 418 kts | 278° |
| 2026-05-05 23:15 | -34.39209 | 155.36688 | 40174 ft | 418 kts | 278° |
| 2026-05-05 23:15 | -34.38627 | 155.29676 | 40171 ft | 418 kts | 278° |
| 2026-05-05 23:16 | -34.38042 | 155.22676 | 40179 ft | 418 kts | 278° |
| 2026-05-05 23:16 | -34.37445 | 155.15702 | 40179 ft | 418 kts | 280° |
| 2026-05-05 23:17 | -34.36724 | 155.08685 | 40178 ft | 420 kts | 279° |
| 2026-05-05 23:17 | -34.36005 | 155.01633 | 40175 ft | 422 kts | 279° |
| 2026-05-05 23:18 | -34.35636 | 154.98113 | 40041 ft | 422 kts | 279° |
| 2026-05-05 23:18 | -34.35278 | 154.94635 | 40159 ft | 410 kts | 278° |
| 2026-05-05 23:18 | -34.34576 | 154.87857 | 40166 ft | 405 kts | 279° |
| 2026-05-05 23:19 | -34.33861 | 154.81044 | 40179 ft | 416 kts | 279° |
| 2026-05-05 23:19 | -34.33123 | 154.74003 | 40183 ft | 426 kts | 279° |
| 2026-05-05 23:20 | -34.32362 | 154.66806 | 40183 ft | 433 kts | 279° |
| 2026-05-05 23:20 | -34.31594 | 154.59579 | 40183 ft | 433 kts | 279° |
| 2026-05-05 23:21 | -34.30828 | 154.52408 | 40182 ft | 432 kts | 279° |
| 2026-05-05 23:21 | -34.30054 | 154.45204 | 40184 ft | 431 kts | 279° |
| 2026-05-05 23:22 | -34.29276 | 154.38015 | 40189 ft | 430 kts | 279° |
| 2026-05-05 23:22 | -34.28493 | 154.30812 | 40185 ft | 432 kts | 279° |
| 2026-05-05 23:23 | -34.27709 | 154.23636 | 40188 ft | 433 kts | 279° |
| 2026-05-05 23:23 | -34.26914 | 154.16402 | 40185 ft | 434 kts | 279° |
| 2026-05-05 23:24 | -34.26114 | 154.09165 | 40193 ft | 434 kts | 279° |
| 2026-05-05 23:24 | -34.25314 | 154.01964 | 40192 ft | 434 kts | 279° |
| 2026-05-05 23:25 | -34.24505 | 153.94724 | 40197 ft | 434 kts | 279° |
| 2026-05-05 23:25 | -34.23692 | 153.87488 | 40188 ft | 434 kts | 279° |
| 2026-05-05 23:26 | -34.22873 | 153.80250 | 40194 ft | 434 kts | 279° |
| 2026-05-05 23:26 | -34.22059 | 153.73080 | 40163 ft | 429 kts | 279° |
| 2026-05-05 23:27 | -34.21654 | 153.69525 | 39564 ft | 427 kts | 279° |
| 2026-05-05 23:27 | -34.21246 | 153.65968 | 38911 ft | 427 kts | 279° |
| 2026-05-05 23:27 | -34.20838 | 153.62413 | 38136 ft | 427 kts | 279° |
| 2026-05-05 23:27 | -34.20432 | 153.58878 | 37553 ft | 423 kts | 279° |
| 2026-05-05 23:28 | -34.20029 | 153.55374 | 36988 ft | 418 kts | 279° |
| 2026-05-05 23:28 | -34.19628 | 153.51909 | 36431 ft | 414 kts | 279° |
| 2026-05-05 23:28 | -34.19231 | 153.48483 | 35888 ft | 410 kts | 280° |
| 2026-05-05 23:28 | -34.18842 | 153.45132 | 35360 ft | 406 kts | 280° |
| 2026-05-05 23:29 | -34.18450 | 153.41769 | 34823 ft | 402 kts | 280° |
| 2026-05-05 23:29 | -34.18061 | 153.38437 | 34307 ft | 399 kts | 280° |
| 2026-05-05 23:29 | -34.17675 | 153.35133 | 33742 ft | 395 kts | 280° |
| 2026-05-05 23:29 | -34.17293 | 153.31872 | 33231 ft | 389 kts | 280° |
| 2026-05-05 23:30 | -34.16914 | 153.28649 | 32714 ft | 384 kts | 280° |
| 2026-05-05 23:30 | -34.16540 | 153.25477 | 32233 ft | 379 kts | 280° |
| 2026-05-05 23:30 | -34.16169 | 153.22342 | 31738 ft | 375 kts | 280° |
| 2026-05-05 23:30 | -34.15803 | 153.19245 | 31253 ft | 370 kts | 280° |
| 2026-05-05 23:31 | -34.15440 | 153.16184 | 30784 ft | 366 kts | 281° |
| 2026-05-05 23:31 | -34.15080 | 153.13157 | 30315 ft | 362 kts | 281° |
| 2026-05-05 23:31 | -34.14723 | 153.10162 | 29814 ft | 358 kts | 281° |
| 2026-05-05 23:31 | -34.14368 | 153.07190 | 29357 ft | 356 kts | 281° |
| 2026-05-05 23:32 | -34.14013 | 153.04226 | 28909 ft | 357 kts | 281° |
| 2026-05-05 23:32 | -34.13661 | 153.01287 | 28448 ft | 359 kts | 281° |
| 2026-05-05 23:32 | -34.13304 | 152.98317 | 27993 ft | 356 kts | 281° |
| 2026-05-05 23:32 | -34.12953 | 152.95387 | 27547 ft | 350 kts | 281° |
| 2026-05-05 23:33 | -34.12603 | 152.92492 | 27107 ft | 348 kts | 281° |
| 2026-05-05 23:33 | -34.12253 | 152.89601 | 26666 ft | 349 kts | 281° |
| 2026-05-05 23:33 | -34.11902 | 152.86697 | 26225 ft | 351 kts | 280° |
| 2026-05-05 23:33 | -34.11549 | 152.83786 | 25782 ft | 348 kts | 280° |
| 2026-05-05 23:34 | -34.11202 | 152.80918 | 25350 ft | 343 kts | 281° |
| 2026-05-05 23:34 | -34.10927 | 152.78664 | 25006 ft | 342 kts | 281° |
| 2026-05-05 23:34 | -34.10579 | 152.75820 | 24577 ft | 343 kts | 280° |
| 2026-05-05 23:34 | -34.10231 | 152.72967 | 24149 ft | 344 kts | 280° |
| 2026-05-05 23:35 | -34.09883 | 152.70123 | 23707 ft | 340 kts | 280° |
| 2026-05-05 23:35 | -34.09540 | 152.67318 | 23249 ft | 335 kts | 280° |
| 2026-05-05 23:35 | -34.09198 | 152.64543 | 22837 ft | 334 kts | 280° |
| 2026-05-05 23:35 | -34.08859 | 152.61796 | 22420 ft | 336 kts | 280° |
| 2026-05-05 23:36 | -34.08516 | 152.59011 | 22007 ft | 334 kts | 280° |
| 2026-05-05 23:36 | -34.08185 | 152.56260 | 21595 ft | 328 kts | 278° |
| 2026-05-05 23:36 | -34.07954 | 152.53523 | 21189 ft | 328 kts | 278° |
| 2026-05-05 23:36 | -34.07679 | 152.50785 | 20780 ft | 330 kts | 279° |
| 2026-05-05 23:37 | -34.07410 | 152.48042 | 20370 ft | 326 kts | 278° |
| 2026-05-05 23:37 | -34.07162 | 152.45345 | 19971 ft | 322 kts | 278° |
| 2026-05-05 23:37 | -34.06914 | 152.42656 | 19569 ft | 323 kts | 278° |
| 2026-05-05 23:37 | -34.06658 | 152.39957 | 19178 ft | 324 kts | 278° |
| 2026-05-05 23:38 | -34.06403 | 152.37280 | 18779 ft | 319 kts | 278° |
| 2026-05-05 23:38 | -34.06153 | 152.34635 | 18376 ft | 317 kts | 278° |
| 2026-05-05 23:38 | -34.05905 | 152.32026 | 17975 ft | 318 kts | 278° |
| 2026-05-05 23:38 | -34.05652 | 152.29371 | 17578 ft | 318 kts | 278° |
| 2026-05-05 23:39 | -34.05402 | 152.26742 | 17189 ft | 312 kts | 278° |
| 2026-05-05 23:39 | -34.05154 | 152.24147 | 16809 ft | 311 kts | 278° |
| 2026-05-05 23:39 | -34.04903 | 152.21543 | 16420 ft | 313 kts | 278° |
| 2026-05-05 23:39 | -34.04652 | 152.18932 | 16040 ft | 311 kts | 278° |
| 2026-05-05 23:40 | -34.04406 | 152.16364 | 15669 ft | 307 kts | 278° |
| 2026-05-05 23:40 | -34.04158 | 152.13804 | 15285 ft | 309 kts | 278° |
| 2026-05-05 23:40 | -34.03911 | 152.11256 | 14911 ft | 310 kts | 278° |
| 2026-05-05 23:40 | -34.03664 | 152.08697 | 14529 ft | 303 kts | 278° |
| 2026-05-05 23:41 | -34.03584 | 152.06166 | 14172 ft | 306 kts | 263° |
| 2026-05-05 23:41 | -34.03994 | 152.03629 | 13781 ft | 309 kts | 261° |
| 2026-05-05 23:41 | -34.04415 | 152.01115 | 13397 ft | 301 kts | 261° |
| 2026-05-05 23:41 | -34.04837 | 151.98633 | 13034 ft | 302 kts | 261° |
| 2026-05-05 23:42 | -34.05251 | 151.96171 | 12673 ft | 304 kts | 261° |
| 2026-05-05 23:42 | -34.05667 | 151.93688 | 12307 ft | 299 kts | 261° |
| 2026-05-05 23:42 | -34.06076 | 151.91238 | 11950 ft | 301 kts | 259° |
| 2026-05-05 23:42 | -34.06496 | 151.88728 | 11594 ft | 306 kts | 259° |
| 2026-05-05 23:43 | -34.06915 | 151.86236 | 11230 ft | 300 kts | 259° |
| 2026-05-05 23:43 | -34.07324 | 151.83787 | 11198 ft | 298 kts | 259° |
| 2026-05-05 23:43 | -34.07738 | 151.81303 | 11174 ft | 302 kts | 259° |
| 2026-05-05 23:43 | -34.08139 | 151.78898 | 11127 ft | 282 kts | 259° |
| 2026-05-05 23:44 | -34.08513 | 151.76650 | 10776 ft | 275 kts | 259° |
| 2026-05-05 23:44 | -34.08889 | 151.74381 | 10292 ft | 274 kts | 259° |
| 2026-05-05 23:44 | -34.09262 | 151.72136 | 9816 ft | 273 kts | 259° |
| 2026-05-05 23:44 | -34.09634 | 151.69895 | 9292 ft | 271 kts | 259° |
| 2026-05-05 23:45 | -34.09999 | 151.67689 | 8960 ft | 264 kts | 260° |
| 2026-05-05 23:45 | -34.10361 | 151.65499 | 8697 ft | 268 kts | 260° |
| 2026-05-05 23:45 | -34.10726 | 151.63286 | 8429 ft | 269 kts | 260° |
| 2026-05-05 23:45 | -34.11092 | 151.61070 | 8152 ft | 269 kts | 260° |
| 2026-05-05 23:46 | -34.11452 | 151.58890 | 7872 ft | 264 kts | 260° |
| 2026-05-05 23:46 | -34.11810 | 151.56708 | 7608 ft | 267 kts | 260° |
| 2026-05-05 23:46 | -34.12172 | 151.54503 | 7333 ft | 268 kts | 260° |
| 2026-05-05 23:46 | -34.12534 | 151.52299 | 7050 ft | 265 kts | 260° |
| 2026-05-05 23:47 | -34.12892 | 151.50121 | 6776 ft | 266 kts | 260° |
| 2026-05-05 23:47 | -34.13250 | 151.47937 | 6496 ft | 267 kts | 260° |
| 2026-05-05 23:47 | -34.13610 | 151.45732 | 6211 ft | 266 kts | 260° |
| 2026-05-05 23:47 | -34.13965 | 151.43566 | 5928 ft | 262 kts | 260° |
| 2026-05-05 23:48 | -34.14320 | 151.41389 | 5657 ft | 264 kts | 260° |
| 2026-05-05 23:48 | -34.14674 | 151.39215 | 5369 ft | 264 kts | 260° |
| 2026-05-05 23:48 | -34.15023 | 151.37076 | 5213 ft | 260 kts | 260° |
| 2026-05-05 23:48 | -34.15362 | 151.34995 | 5162 ft | 245 kts | 260° |
| 2026-05-05 23:49 | -34.15686 | 151.33000 | 4979 ft | 245 kts | 260° |
| 2026-05-05 23:49 | -34.16068 | 151.30623 | 4712 ft | 333 kts | 260° |
| 2026-05-05 23:49 | -34.16243 | 151.27727 | 4272 ft | 347 kts | 278° |
| 2026-05-05 23:49 | -34.15448 | 151.25080 | 4019 ft | 332 kts | 304° |
| 2026-05-05 23:50 | -34.13905 | 151.23151 | 3516 ft | 315 kts | 326° |
| 2026-05-05 23:50 | -34.11983 | 151.22095 | 3134 ft | 296 kts | 345° |
| 2026-05-05 23:50 | -34.10017 | 151.21587 | 2751 ft | 282 kts | 350° |
| 2026-05-05 23:50 | -34.08087 | 151.21136 | 2365 ft | 285 kts | 349° |
| 2026-05-05 23:51 | -34.06140 | 151.20613 | 1973 ft | 282 kts | 347° |
| 2026-05-05 23:51 | -34.04264 | 151.20097 | 1597 ft | 271 kts | 348° |
| 2026-05-05 23:51 | -34.02476 | 151.19532 | 1584 ft | 261 kts | 336° |
| 2026-05-05 23:51 | -34.00997 | 151.18279 | 2003 ft | 262 kts | 310° |
| 2026-05-05 23:52 | -34.00028 | 151.16356 | 2082 ft | 279 kts | 289° |
| 2026-05-05 23:52 | -33.99515 | 151.14166 | 2792 ft | 264 kts | 279° |
| 2026-05-05 23:52 | -33.99672 | 151.12068 | 3002 ft | 243 kts | 245° |
| 2026-05-05 23:52 | -34.00630 | 151.10538 | 2963 ft | 223 kts | 219° |
| 2026-05-05 23:53 | -34.02004 | 151.09957 | 2993 ft | 209 kts | 181° |
| 2026-05-05 23:53 | -34.03403 | 151.10067 | 3008 ft | 194 kts | 173° |
| 2026-05-05 23:53 | -34.04738 | 151.10226 | 3014 ft | 192 kts | 173° |
| 2026-05-05 23:53 | -34.06062 | 151.10381 | 3017 ft | 190 kts | 173° |
| 2026-05-05 23:54 | -34.07371 | 151.10535 | 3018 ft | 189 kts | 173° |
| 2026-05-05 23:54 | -34.08246 | 151.10638 | 3016 ft | 190 kts | 173° |
| 2026-05-05 23:54 | -34.09548 | 151.10877 | 2998 ft | 188 kts | 165° |
| 2026-05-05 23:54 | -34.10752 | 151.11278 | 3002 ft | 171 kts | 163° |
| 2026-05-05 23:55 | -34.11887 | 151.11657 | 3002 ft | 168 kts | 163° |
| 2026-05-05 23:55 | -34.12979 | 151.12115 | 2962 ft | 166 kts | 148° |
| 2026-05-05 23:55 | -34.13520 | 151.13274 | 2907 ft | 163 kts | 94° |
| 2026-05-05 23:55 | -34.13390 | 151.14607 | 3002 ft | 159 kts | 81° |
| 2026-05-05 23:56 | -34.13253 | 151.15948 | 3020 ft | 164 kts | 83° |
| 2026-05-05 23:56 | -34.12821 | 151.17194 | 2978 ft | 162 kts | 53° |
| 2026-05-05 23:56 | -34.12096 | 151.18243 | 3021 ft | 164 kts | 52° |
| 2026-05-05 23:56 | -34.11397 | 151.19337 | 2951 ft | 165 kts | 53° |
| 2026-05-05 23:57 | -34.10656 | 151.20378 | 2811 ft | 163 kts | 45° |
| 2026-05-05 23:57 | -34.09673 | 151.21051 | 2656 ft | 164 kts | 27° |
| 2026-05-05 23:57 | -34.08584 | 151.21378 | 2387 ft | 166 kts | 355° |
| 2026-05-05 23:57 | -34.07505 | 151.20859 | 2228 ft | 169 kts | 339° |
| 2026-05-05 23:58 | -34.06339 | 151.20669 | 2013 ft | 170 kts | 354° |
| 2026-05-05 23:58 | -34.05179 | 151.20347 | 1786 ft | 172 kts | 347° |
| 2026-05-05 23:58 | -34.04008 | 151.20042 | 1555 ft | 170 kts | 348° |
| 2026-05-05 23:58 | -34.02868 | 151.19746 | 1322 ft | 167 kts | 348° |
| 2026-05-05 23:59 | -34.01785 | 151.19467 | 1096 ft | 154 kts | 348° |
| 2026-05-05 23:59 | -34.00745 | 151.19186 | 903 ft | 151 kts | 347° |
| 2026-05-05 23:59 | -33.99734 | 151.18925 | 695 ft | 145 kts | 346° |
| 2026-05-05 23:59 | -33.98773 | 151.18675 | 516 ft | 141 kts | 346° |
| 2026-05-06 00:00 | -33.97819 | 151.18428 | 327 ft | 139 kts | 346° |
| 2026-05-06 00:00 | -33.96889 | 151.18187 | 151 ft | 134 kts | 346° |
| 2026-05-06 00:00 | -33.95998 | 151.17942 | 28 ft | 123 kts | 344° |
| 2026-05-06 00:00 | -33.95327 | 151.17779 | 29 ft | 78 kts | 349° |
| 2026-05-06 00:01 | -33.94857 | 151.17657 | 28 ft | 63 kts | 350° |
| 2026-05-06 00:01 | -33.94526 | 151.17537 | 30 ft | 36 kts | 332° |
| 2026-05-06 00:01 | -33.94355 | 151.17389 | 29 ft | 26 kts | 313° |
| 2026-05-06 00:01 | -33.94250 | 151.17286 | 28 ft | 21 kts | 341° |
| 2026-05-06 00:02 | -33.94082 | 151.17247 | 27 ft | 24 kts | 349° |
| 2026-05-06 00:02 | -33.93988 | 151.17205 | 29 ft | 7 kts | 304° |
| 2026-05-06 00:02 | -33.93984 | 151.17151 | 30 ft | 6 kts | 249° |
| 2026-05-06 00:02 | -33.94010 | 151.17065 | 30 ft | 12 kts | 253° |
| 2026-05-06 00:03 | -33.94029 | 151.16966 | 26 ft | 11 kts | 257° |
| 2026-05-06 00:03 | -33.94051 | 151.16879 | 27 ft | 11 kts | 251° |
| 2026-05-06 00:03 | -33.94050 | 151.16827 | 27 ft | 1 kts | 306° |
| 2026-05-06 00:03 | -33.94012 | 151.16801 | 27 ft | 9 kts | 341° |
| 2026-05-06 00:04 | -33.93944 | 151.16778 | 27 ft | 11 kts | 344° |
| 2026-05-06 00:04 | -33.93866 | 151.16752 | 26 ft | 12 kts | 344° |
| 2026-05-06 00:04 | -33.93804 | 151.16722 | 26 ft | 2 kts | 311° |
| 2026-05-06 00:04 | -33.93802 | 151.16715 | 26 ft | 0 kts | 294° |
| 2026-05-06 00:05 | -33.93812 | 151.16679 | 27 ft | 5 kts | 249° |
| 2026-05-06 00:05 | -33.93822 | 151.16638 | 27 ft | 6 kts | 254° |
| 2026-05-06 00:05 | -33.93824 | 151.16630 | 27 ft | 0 kts | 254° |